createdAt,value
2022-11-29T00:01:35.628Z,10.80
2022-11-29T00:04:03.941Z,11.70
2022-11-29T00:06:33.457Z,9.93
2022-11-29T00:09:06.769Z,10.23
2022-11-29T00:11:54.365Z,13.40
2022-11-29T00:14:23.238Z,11.90
2022-11-29T00:16:53.913Z,11.63
2022-11-29T00:19:22.494Z,12.43
2022-11-29T00:21:50.419Z,10.67
2022-11-29T00:24:18.824Z,11.60
2022-11-29T00:26:46.686Z,12.73
2022-11-29T00:29:14.624Z,11.00
2022-11-29T00:31:42.749Z,11.10
2022-11-29T00:34:13.310Z,11.97
2022-11-29T00:36:41.799Z,11.70
2022-11-29T00:39:11.716Z,13.00
2022-11-29T00:41:40.039Z,12.63
2022-11-29T00:44:08.127Z,11.90
2022-11-29T00:46:35.977Z,11.63
2022-11-29T00:49:03.913Z,12.70
2022-11-29T00:51:33.127Z,10.90
2022-11-29T00:54:00.963Z,10.77
2022-11-29T00:56:28.807Z,11.40
2022-11-29T00:58:56.652Z,10.47
2022-11-29T01:01:24.495Z,11.83
2022-11-29T01:03:52.473Z,13.17
2022-11-29T01:06:20.589Z,11.27
2022-11-29T01:08:50.621Z,11.20
2022-11-29T01:11:20.929Z,11.00
2022-11-29T01:13:49.840Z,11.40
2022-11-29T01:16:18.122Z,11.37
2022-11-29T01:18:46.005Z,11.67
2022-11-29T01:21:15.607Z,13.30
2022-11-29T01:23:44.787Z,11.90
2022-11-29T01:26:16.088Z,11.10
2022-11-29T01:28:46.274Z,12.23
2022-11-29T01:31:16.078Z,12.33
2022-11-29T01:33:44.160Z,11.03
2022-11-29T01:36:13.292Z,11.13
2022-11-29T01:38:42.301Z,11.70
2022-11-29T01:41:14.931Z,10.33
2022-11-29T01:44:04.010Z,9.97
2022-11-29T01:46:33.304Z,11.73
2022-11-29T01:49:04.875Z,11.00
2022-11-29T01:51:35.357Z,11.10
2022-11-29T01:54:03.799Z,10.47
2022-11-29T01:56:35.570Z,10.90
2022-11-29T01:59:06.667Z,10.33
2022-11-29T02:01:34.892Z,10.93
2022-11-29T02:04:03.154Z,11.17
2022-11-29T02:06:31.662Z,11.53
2022-11-29T02:08:59.658Z,11.77
2022-11-29T02:12:05.321Z,10.80
2022-11-29T02:14:48.489Z,11.80
2022-11-29T02:17:25.699Z,11.03
2022-11-29T02:20:31.533Z,11.47
2022-11-29T02:23:05.931Z,11.03
2022-11-29T02:25:48.065Z,10.60
2022-11-29T02:28:42.068Z,12.27
2022-11-29T02:31:39.937Z,10.97
2022-11-29T02:34:24.838Z,11.47
2022-11-29T02:37:11.514Z,10.60
2022-11-29T02:40:01.620Z,9.70
2022-11-29T02:43:15.589Z,11.50
2022-11-29T02:45:51.331Z,10.40
2022-11-29T02:48:34.381Z,10.87
2022-11-29T02:51:10.738Z,10.90
2022-11-29T02:53:43.282Z,11.37
2022-11-29T02:56:17.986Z,11.40
2022-11-29T02:58:52.134Z,11.67
2022-11-29T03:01:26.761Z,11.43
2022-11-29T03:04:01.918Z,12.10
2022-11-29T03:06:40.363Z,10.67
2022-11-29T03:09:17.679Z,13.20
2022-11-29T03:11:51.928Z,13.30
2022-11-29T03:14:25.900Z,10.07
2022-11-29T03:17:04.499Z,12.03
2022-11-29T03:19:51.910Z,10.73
2022-11-29T03:22:32.552Z,11.80
2022-11-29T03:25:07.099Z,11.73
2022-11-29T03:27:41.845Z,11.30
2022-11-29T03:30:11.888Z,12.50
2022-11-29T03:32:49.039Z,11.40
2022-11-29T03:35:25.154Z,12.93
2022-11-29T03:38:00.577Z,12.23
2022-11-29T03:40:34.614Z,12.77
2022-11-29T03:43:07.287Z,11.47
2022-11-29T03:45:40.341Z,12.50
2022-11-29T03:48:13.416Z,12.23
2022-11-29T03:50:46.075Z,10.97
2022-11-29T03:53:21.552Z,11.40
2022-11-29T03:55:54.539Z,13.30
2022-11-29T03:58:37.373Z,12.20
2022-11-29T04:01:29.698Z,12.53
2022-11-29T04:04:24.011Z,13.00
2022-11-29T04:07:06.865Z,12.40
2022-11-29T04:09:58.299Z,11.83
2022-11-29T04:13:01.846Z,12.00
2022-11-29T04:16:08.191Z,11.40
2022-11-29T04:19:13.859Z,11.90
2022-11-29T04:21:55.144Z,12.93
2022-11-29T04:25:04.788Z,12.10
2022-11-29T04:28:05.899Z,12.07
2022-11-29T04:30:40.785Z,11.67
2022-11-29T04:33:44.265Z,10.83
2022-11-29T04:36:54.412Z,11.97
2022-11-29T04:39:38.532Z,11.60
2022-11-29T04:42:36.972Z,12.13
2022-11-29T04:45:40.553Z,11.80
2022-11-29T04:48:24.981Z,11.93
2022-11-29T04:51:03.598Z,11.87
2022-11-29T04:53:50.650Z,12.50
2022-11-29T04:56:29.927Z,10.40
2022-11-29T04:59:05.637Z,12.13
2022-11-29T05:01:42.322Z,13.70
2022-11-29T05:04:18.534Z,13.53
2022-11-29T05:06:59.913Z,11.53
2022-11-29T05:09:38.047Z,11.83
2022-11-29T05:12:16.490Z,10.47
2022-11-29T05:15:01.878Z,12.27
2022-11-29T05:17:39.389Z,11.80
2022-11-29T05:20:22.500Z,12.67
2022-11-29T05:23:06.789Z,12.63
2022-11-29T05:25:46.311Z,12.00
2022-11-29T05:28:21.419Z,10.77
2022-11-29T05:31:13.976Z,12.80
2022-11-29T05:34:06.675Z,11.33
2022-11-29T05:36:40.450Z,11.77
2022-11-29T05:39:22.424Z,13.20
2022-11-29T05:42:05.952Z,11.17
2022-11-29T05:44:38.156Z,10.90
2022-11-29T05:47:10.657Z,12.47
2022-11-29T05:49:44.453Z,11.93
2022-11-29T05:52:37.667Z,11.60
2022-11-29T05:55:19.344Z,12.03
2022-11-29T05:57:54.543Z,12.50
2022-11-29T06:00:23.723Z,12.67
2022-11-29T06:03:03.597Z,11.80
2022-11-29T06:05:38.284Z,12.40
2022-11-29T06:08:14.188Z,13.07
2022-11-29T06:10:57.597Z,13.83
2022-11-29T06:13:37.962Z,11.70
2022-11-29T06:16:38.897Z,11.73
2022-11-29T06:19:38.421Z,13.97
2022-11-29T06:22:31.744Z,12.80
2022-11-29T06:25:17.902Z,13.40
2022-11-29T06:28:05.314Z,13.70
2022-11-29T06:30:43.454Z,12.67
2022-11-29T06:33:22.310Z,13.93
2022-11-29T06:36:00.566Z,13.13
2022-11-29T06:38:30.529Z,14.70
2022-11-29T06:41:02.193Z,13.23
2022-11-29T06:43:30.938Z,12.90
2022-11-29T06:46:05.773Z,12.90
2022-11-29T06:48:39.956Z,12.93
2022-11-29T06:51:17.229Z,15.60
2022-11-29T06:53:52.544Z,16.90
2022-11-29T06:56:26.959Z,15.30
2022-11-29T06:59:03.712Z,14.63
2022-11-29T07:01:39.752Z,14.33
2022-11-29T07:04:45.426Z,14.07
2022-11-29T07:07:18.921Z,14.67
2022-11-29T07:09:49.265Z,13.57
2022-11-29T07:12:17.766Z,16.87
2022-11-29T07:14:46.957Z,16.37
2022-11-29T07:17:25.825Z,15.37
2022-11-29T07:20:04.486Z,15.50
2022-11-29T07:22:52.620Z,15.43
2022-11-29T07:25:30.559Z,14.63
2022-11-29T07:28:06.170Z,16.20
2022-11-29T07:30:40.778Z,15.13
2022-11-29T07:33:15.280Z,14.63
2022-11-29T07:35:49.534Z,15.10
2022-11-29T07:38:36.472Z,16.20
2022-11-29T07:41:13.088Z,19.13
2022-11-29T07:43:51.603Z,16.43
2022-11-29T07:46:19.552Z,15.60
2022-11-29T07:48:47.444Z,15.73
2022-11-29T07:51:15.298Z,15.50
2022-11-29T07:53:45.586Z,16.80
2022-11-29T07:56:14.759Z,15.97
2022-11-29T07:58:42.718Z,16.10
2022-11-29T08:01:10.684Z,16.90
2022-11-29T08:03:38.609Z,16.00
2022-11-29T08:06:06.575Z,16.90
2022-11-29T08:08:37.777Z,18.40
2022-11-29T08:11:13.839Z,15.83
2022-11-29T08:13:41.652Z,17.47
2022-11-29T08:16:09.718Z,18.50
2022-11-29T08:18:37.707Z,19.20
2022-11-29T08:21:07.309Z,21.90
2022-11-29T08:23:35.106Z,19.13
2022-11-29T08:26:03.606Z,17.77
2022-11-29T08:28:32.765Z,17.50
2022-11-29T08:31:05.245Z,16.37
2022-11-29T08:33:35.361Z,17.93
2022-11-29T08:36:06.814Z,18.03
2022-11-29T08:38:34.840Z,19.37
2022-11-29T08:41:03.191Z,17.57
2022-11-29T08:43:32.913Z,19.43
2022-11-29T08:46:00.799Z,18.30
2022-11-29T08:48:28.881Z,17.77
2022-11-29T08:50:57.897Z,17.77
2022-11-29T08:53:43.397Z,19.03
2022-11-29T08:56:49.808Z,18.07
2022-11-29T08:59:02.099Z,16.13
2022-11-29T09:01:30.069Z,17.33
2022-11-29T09:04:02.810Z,18.73
2022-11-29T09:06:33.062Z,17.83
2022-11-29T09:09:01.909Z,18.10
2022-11-29T09:11:31.869Z,18.63
2022-11-29T09:14:02.595Z,16.97
2022-11-29T09:16:33.329Z,17.10
2022-11-29T09:19:01.283Z,17.40
2022-11-29T09:21:31.795Z,19.40
2022-11-29T09:24:00.958Z,16.40
2022-11-29T09:26:30.383Z,16.67
2022-11-29T09:29:01.080Z,16.57
2022-11-29T09:31:31.244Z,17.60
2022-11-29T09:33:59.162Z,18.30
2022-11-29T09:36:29.252Z,17.97
2022-11-29T09:38:57.342Z,19.23
2022-11-29T09:41:54.493Z,19.03
2022-11-29T09:44:36.340Z,18.20
2022-11-29T09:47:19.753Z,16.97
2022-11-29T09:50:04.624Z,16.60
2022-11-29T09:52:43.533Z,17.30
2022-11-29T09:55:35.114Z,17.37
2022-11-29T09:58:06.787Z,17.70
2022-11-29T10:00:39.211Z,16.40
2022-11-29T10:03:15.970Z,18.63
2022-11-29T10:05:47.585Z,17.43
2022-11-29T10:08:19.491Z,16.37
2022-11-29T10:10:49.288Z,17.37
2022-11-29T10:13:23.206Z,16.97
2022-11-29T10:15:55.448Z,17.53
2022-11-29T10:18:29.650Z,17.73
2022-11-29T10:21:00.767Z,18.67
2022-11-29T10:23:33.852Z,16.90
2022-11-29T10:26:02.005Z,19.03
2022-11-29T10:28:32.903Z,17.77
2022-11-29T10:31:09.380Z,18.40
2022-11-29T10:33:42.028Z,17.50
2022-11-29T10:36:19.291Z,18.60
2022-11-29T10:38:48.507Z,16.40
2022-11-29T10:41:21.676Z,19.33
2022-11-29T10:43:51.237Z,17.60
2022-11-29T10:46:28.241Z,18.83
2022-11-29T10:48:58.659Z,18.90
2022-11-29T10:51:26.892Z,18.30
2022-11-29T10:53:55.489Z,18.67
2022-11-29T10:56:29.256Z,19.40
2022-11-29T10:59:03.151Z,19.53
2022-11-29T11:01:32.579Z,16.90
2022-11-29T11:04:07.491Z,18.93
2022-11-29T11:06:46.284Z,17.80
2022-11-29T11:09:21.854Z,17.13
2022-11-29T11:11:54.366Z,19.37
2022-11-29T11:14:26.145Z,18.90
2022-11-29T11:16:54.547Z,17.70
2022-11-29T11:19:32.868Z,16.63
2022-11-29T11:22:02.143Z,18.03
2022-11-29T11:24:31.921Z,17.03
2022-11-29T11:27:01.386Z,17.10
2022-11-29T11:29:36.163Z,19.90
2022-11-29T11:32:04.517Z,17.80
2022-11-29T11:34:35.398Z,17.97
2022-11-29T11:37:20.678Z,17.67
2022-11-29T11:39:50.719Z,19.00
2022-11-29T11:42:39.314Z,18.10
2022-11-29T11:45:26.521Z,18.40
2022-11-29T11:47:57.118Z,19.13
2022-11-29T11:50:30.368Z,19.30
2022-11-29T11:53:00.846Z,18.03
2022-11-29T11:55:35.996Z,18.40
2022-11-29T11:58:16.731Z,16.90
2022-11-29T12:01:04.657Z,16.97
2022-11-29T12:03:41.445Z,19.17
2022-11-29T12:06:33.591Z,17.63
2022-11-29T12:09:06.016Z,17.77
2022-11-29T12:11:44.078Z,18.93
2022-11-29T12:14:26.785Z,21.40
2022-11-29T12:17:06.111Z,19.10
2022-11-29T12:19:41.842Z,21.13
2022-11-29T12:22:19.740Z,20.80
2022-11-29T12:24:56.327Z,21.47
2022-11-29T12:27:24.208Z,20.40
2022-11-29T12:29:52.320Z,21.00
2022-11-29T12:32:35.383Z,20.73
2022-11-29T12:35:35.040Z,18.97
2022-11-29T12:38:13.749Z,20.57
2022-11-29T12:40:49.051Z,22.03
2022-11-29T12:43:27.397Z,20.57
2022-11-29T12:46:01.384Z,21.27
2022-11-29T12:48:36.158Z,20.27
2022-11-29T12:51:12.059Z,20.13
2022-11-29T12:53:54.803Z,19.70
2022-11-29T12:56:28.174Z,18.67
2022-11-29T12:59:12.168Z,19.83
2022-11-29T13:01:56.105Z,21.63
2022-11-29T13:04:30.614Z,22.40
2022-11-29T13:07:07.560Z,20.57
2022-11-29T13:10:01.313Z,23.10
2022-11-29T13:12:37.966Z,21.33
2022-11-29T13:15:11.931Z,21.60
2022-11-29T13:17:45.113Z,20.93
2022-11-29T13:20:29.604Z,21.00
2022-11-29T13:23:01.825Z,21.57
2022-11-29T13:25:36.889Z,19.73
2022-11-29T13:28:07.952Z,22.63
2022-11-29T13:30:36.841Z,22.43
2022-11-29T13:33:13.248Z,21.40
2022-11-29T13:35:48.074Z,21.70
2022-11-29T13:38:23.210Z,22.90
2022-11-29T13:40:59.663Z,23.47
2022-11-29T13:43:36.122Z,22.97
2022-11-29T13:46:15.689Z,21.17
2022-11-29T13:48:48.950Z,21.17
2022-11-29T13:51:26.485Z,20.73
2022-11-29T13:53:55.530Z,21.50
2022-11-29T13:56:32.805Z,21.70
2022-11-29T13:59:01.885Z,21.43
2022-11-29T14:01:30.002Z,21.67
2022-11-29T14:04:07.718Z,23.90
2022-11-29T14:06:37.514Z,21.87
2022-11-29T14:09:27.093Z,19.90
2022-11-29T14:12:02.957Z,20.83
2022-11-29T14:14:35.215Z,22.20
2022-11-29T14:17:04.986Z,21.87
2022-11-29T14:19:34.775Z,21.00
2022-11-29T14:22:21.316Z,20.53
2022-11-29T14:25:49.137Z,22.07
2022-11-29T14:28:31.109Z,18.97
2022-11-29T14:31:01.373Z,22.33
2022-11-29T14:34:04.146Z,20.63
2022-11-29T14:36:54.735Z,21.40
2022-11-29T14:39:33.899Z,22.43
2022-11-29T14:42:16.943Z,23.43
2022-11-29T14:44:49.479Z,20.53
2022-11-29T14:47:29.871Z,22.93
2022-11-29T14:50:00.359Z,21.97
2022-11-29T14:52:31.509Z,22.50
2022-11-29T14:55:06.425Z,22.20
2022-11-29T14:58:14.515Z,22.43
2022-11-29T15:01:11.579Z,24.83
2022-11-29T15:03:50.500Z,24.47
2022-11-29T15:06:25.791Z,24.40
2022-11-29T15:09:02.675Z,26.50
2022-11-29T15:11:44.249Z,27.90
2022-11-29T15:14:19.479Z,25.63
2022-11-29T15:17:03.337Z,26.07
2022-11-29T15:20:04.628Z,26.00
2022-11-29T15:22:45.940Z,22.83
2022-11-29T15:25:17.140Z,25.20
2022-11-29T15:27:52.990Z,26.03
2022-11-29T15:30:27.722Z,27.00
2022-11-29T15:32:57.202Z,23.70
2022-11-29T15:35:25.331Z,27.60
2022-11-29T15:37:54.457Z,24.53
2022-11-29T15:40:24.641Z,25.50
2022-11-29T15:42:57.854Z,25.00
2022-11-29T15:45:34.684Z,23.93
2022-11-29T15:48:18.063Z,24.33
2022-11-29T15:50:52.238Z,23.50
2022-11-29T15:53:25.554Z,25.80
2022-11-29T15:55:57.541Z,23.67
2022-11-29T15:58:28.317Z,23.83
2022-11-29T16:00:56.615Z,25.10
2022-11-29T16:03:30.755Z,24.17
2022-11-29T16:06:07.698Z,21.37
2022-11-29T16:08:38.824Z,21.20
2022-11-29T16:11:07.691Z,23.43
2022-11-29T16:13:40.397Z,23.23
2022-11-29T16:16:13.116Z,25.10
2022-11-29T16:18:44.910Z,25.13
2022-11-29T16:21:26.310Z,23.60
2022-11-29T16:23:54.863Z,23.00
2022-11-29T16:26:25.157Z,23.87
2022-11-29T16:28:54.680Z,20.70
2022-11-29T16:31:25.500Z,20.43
2022-11-29T16:33:54.929Z,20.93
2022-11-29T16:36:26.557Z,21.33
2022-11-29T16:38:57.178Z,21.90
2022-11-29T16:41:32.339Z,20.50
2022-11-29T16:44:03.226Z,18.83
2022-11-29T16:46:39.215Z,20.37
2022-11-29T16:49:38.697Z,19.80
2022-11-29T16:52:24.928Z,20.03
2022-11-29T16:54:52.853Z,20.80
2022-11-29T16:57:20.810Z,21.53
2022-11-29T16:59:48.847Z,20.83
2022-11-29T17:02:17.203Z,21.83
2022-11-29T17:04:47.029Z,19.60
2022-11-29T17:07:19.420Z,21.70
2022-11-29T17:09:47.258Z,22.17
2022-11-29T17:12:15.148Z,23.50
2022-11-29T17:14:43.035Z,24.93
2022-11-29T17:17:14.682Z,25.10
2022-11-29T17:19:42.508Z,24.00
2022-11-29T17:22:12.012Z,22.80
2022-11-29T17:24:44.903Z,22.33
2022-11-29T17:27:15.760Z,22.33
2022-11-29T17:29:43.559Z,22.90
2022-11-29T17:32:11.411Z,25.50
2022-11-29T17:34:39.238Z,24.27
2022-11-29T17:37:07.054Z,24.10
2022-11-29T17:39:36.211Z,23.13
2022-11-29T17:42:04.187Z,25.03
2022-11-29T17:44:33.877Z,22.20
2022-11-29T17:47:01.696Z,24.07
2022-11-29T17:49:29.501Z,23.87
2022-11-29T17:51:57.339Z,23.70
2022-11-29T17:54:25.414Z,25.67
2022-11-29T17:56:54.660Z,23.50
2022-11-29T17:59:22.458Z,24.70
2022-11-29T18:01:50.328Z,29.47
2022-11-29T18:04:18.285Z,23.67
2022-11-29T18:06:49.660Z,24.93
2022-11-29T18:09:19.221Z,25.27
2022-11-29T18:11:49.726Z,26.67
2022-11-29T18:14:30.910Z,27.20
2022-11-29T18:16:58.920Z,27.00
2022-11-29T18:19:27.883Z,29.70
2022-11-29T18:21:55.813Z,24.90
2022-11-29T18:24:23.591Z,27.13
2022-11-29T18:26:51.450Z,29.53
2022-11-29T18:29:20.108Z,26.40
2022-11-29T18:31:49.298Z,27.57
2022-11-29T18:34:17.228Z,26.20
2022-11-29T18:36:46.861Z,29.87
2022-11-29T18:39:16.315Z,29.33
2022-11-29T18:41:49.762Z,27.90
2022-11-29T18:44:20.115Z,30.80
2022-11-29T18:46:49.671Z,26.57
2022-11-29T18:49:18.994Z,29.47
2022-11-29T18:51:48.036Z,28.20
2022-11-29T18:54:17.207Z,26.20
2022-11-29T18:56:46.093Z,27.47
2022-11-29T18:59:16.767Z,26.57
2022-11-29T19:01:46.889Z,29.53
2022-11-29T19:04:17.889Z,29.10
2022-11-29T19:06:46.034Z,30.07
2022-11-29T19:09:15.256Z,27.40
2022-11-29T19:11:43.330Z,26.27
2022-11-29T19:14:13.031Z,25.83
2022-11-29T19:16:42.921Z,26.97
2022-11-29T19:19:11.190Z,27.73
2022-11-29T19:21:40.704Z,28.17
2022-11-29T19:24:13.910Z,28.60
2022-11-29T19:26:44.191Z,28.80
2022-11-29T19:29:12.522Z,27.10
2022-11-29T19:31:40.353Z,25.40
2022-11-29T19:34:08.296Z,24.87
2022-11-29T19:36:37.294Z,26.90
2022-11-29T19:39:06.452Z,26.03
2022-11-29T19:41:35.535Z,25.20
2022-11-29T19:44:05.284Z,24.67
2022-11-29T19:46:34.863Z,23.07
2022-11-29T19:49:03.895Z,26.63
2022-11-29T19:51:32.673Z,25.60
2022-11-29T19:54:02.527Z,25.87
2022-11-29T19:56:33.051Z,24.60
2022-11-29T19:59:01.232Z,26.03
2022-11-29T20:01:39.338Z,26.63
2022-11-29T20:04:09.127Z,25.37
2022-11-29T20:06:37.138Z,27.00
2022-11-29T20:09:06.330Z,25.17
2022-11-29T20:11:35.664Z,23.50
2022-11-29T20:14:05.515Z,23.73
2022-11-29T20:16:33.613Z,23.00
2022-11-29T20:19:01.850Z,24.20
2022-11-29T20:21:32.191Z,21.40
2022-11-29T20:24:01.481Z,21.30
2022-11-29T20:26:30.278Z,22.87
2022-11-29T20:29:00.206Z,23.20
2022-11-29T20:31:28.331Z,23.60
2022-11-29T20:33:57.961Z,23.90
2022-11-29T20:36:38.466Z,21.97
2022-11-29T20:39:17.849Z,21.27
2022-11-29T20:41:51.818Z,20.27
2022-11-29T20:44:25.166Z,22.67
2022-11-29T20:46:53.314Z,21.27
2022-11-29T20:49:21.607Z,23.00
2022-11-29T20:51:56.370Z,23.50
2022-11-29T20:54:24.273Z,23.80
2022-11-29T20:56:52.053Z,19.93
2022-11-29T20:59:21.237Z,23.77
2022-11-29T21:01:49.079Z,26.00
2022-11-29T21:04:22.941Z,22.50
2022-11-29T21:06:51.276Z,22.93
2022-11-29T21:09:19.092Z,24.67
2022-11-29T21:11:47.392Z,25.73
2022-11-29T21:14:15.684Z,25.63
2022-11-29T21:16:45.340Z,23.27
2022-11-29T21:19:19.518Z,23.80
2022-11-29T21:21:57.037Z,22.87
2022-11-29T21:24:34.500Z,22.37
2022-11-29T21:27:03.381Z,23.83
2022-11-29T21:29:31.642Z,23.73
2022-11-29T21:32:01.989Z,23.80
2022-11-29T21:34:29.843Z,28.92
2022-11-29T21:37:00.456Z,23.07
2022-11-29T21:39:32.868Z,23.70
2022-11-29T21:42:00.668Z,22.63
2022-11-29T21:44:28.524Z,25.20
2022-11-29T21:46:56.401Z,23.10
2022-11-29T21:49:25.698Z,26.57
2022-11-29T21:51:53.501Z,25.20
2022-11-29T21:54:21.284Z,20.40
2022-11-29T21:56:49.078Z,23.30
2022-11-29T21:59:16.917Z,22.93
2022-11-29T22:01:44.865Z,24.83
2022-11-29T22:04:12.784Z,25.23
2022-11-29T22:06:42.009Z,22.30
2022-11-29T22:09:10.302Z,21.37
2022-11-29T22:11:39.010Z,21.37
2022-11-29T22:14:15.123Z,22.53
2022-11-29T22:16:44.217Z,23.20
2022-11-29T22:19:13.542Z,21.47
2022-11-29T22:21:44.144Z,22.53
2022-11-29T22:24:13.324Z,21.27
2022-11-29T22:26:42.621Z,23.67
2022-11-29T22:29:10.718Z,20.50
2022-11-29T22:31:41.790Z,20.20
2022-11-29T22:34:09.776Z,22.43
2022-11-29T22:36:38.472Z,21.10
2022-11-29T22:39:09.360Z,19.57
2022-11-29T22:41:38.634Z,19.90
2022-11-29T22:44:07.361Z,22.37
2022-11-29T22:46:36.285Z,19.37
2022-11-29T22:49:04.533Z,19.17
2022-11-29T22:51:34.231Z,17.60
2022-11-29T22:54:03.465Z,19.70
2022-11-29T22:56:34.228Z,20.83
2022-11-29T22:59:02.497Z,19.50
2022-11-29T23:01:32.069Z,19.30
2022-11-29T23:04:03.782Z,19.33
2022-11-29T23:06:32.935Z,20.27
2022-11-29T23:09:05.153Z,18.93
2022-11-29T23:11:34.754Z,20.47
2022-11-29T23:14:02.620Z,22.50
2022-11-29T23:16:32.695Z,19.00
2022-11-29T23:19:01.786Z,19.83
2022-11-29T23:21:30.957Z,21.70
2022-11-29T23:24:00.774Z,20.00
2022-11-29T23:26:31.055Z,18.50
2022-11-29T23:29:00.245Z,19.93
2022-11-29T23:31:28.089Z,21.17
2022-11-29T23:33:56.060Z,19.90
2022-11-29T23:36:23.855Z,18.80
2022-11-29T23:38:51.898Z,21.27
2022-11-29T23:41:19.689Z,19.57
2022-11-29T23:43:47.576Z,20.03
2022-11-29T23:46:18.799Z,19.00
2022-11-29T23:48:46.921Z,19.57
2022-11-29T23:51:15.536Z,19.30
2022-11-29T23:53:43.549Z,18.90
2022-11-29T23:56:13.905Z,19.00
2022-11-29T23:58:42.842Z,17.63
